Time;durP1;ratioP1;P1;durP2;ratioP2;P2;SDS_P1;SDS_P2;PMS_P1;PMS_P2;Temp;Humidity;BMP_temperature;BMP_pressure;BME280_temperature;BME280_humidity;BME280_pressure;Samples;Min_cycle;Max_cycle;Signal;HPM_P1;HPM_P2
2022/08/17 00:00:39;;;;;;;42.47;33.33;;;18.50;91.70;;;;;;4862839;29;20093;-81
2022/08/17 00:03:13;;;;;;;41.30;34.00;;;18.50;92.00;;;;;;4862708;29;20040;-81
2022/08/17 00:05:51;;;;;;;40.47;31.02;;;18.50;92.30;;;;;;4850659;29;20516;-81
2022/08/17 00:08:25;;;;;;;47.25;34.40;;;18.50;92.10;;;;;;4860896;29;20500;-81
2022/08/17 00:10:51;;;;;;;42.10;33.53;;;18.50;92.40;;;;;;4865597;29;20029;-81
2022/08/17 00:13:26;;;;;;;47.33;36.67;;;18.40;92.60;;;;;;4863727;29;20037;-80
2022/08/17 00:15:55;;;;;;;49.85;35.78;;;18.50;92.80;;;;;;4856843;29;20037;-81
2022/08/17 00:18:20;;;;;;;44.17;34.63;;;18.40;93.00;;;;;;4867794;29;20497;-80
2022/08/17 00:20:46;;;;;;;44.83;35.80;;;18.40;93.10;;;;;;4879439;29;20031;-81
2022/08/17 00:23:14;;;;;;;46.83;36.20;;;18.40;93.20;;;;;;4846865;29;20132;-81
2022/08/17 00:25:42;;;;;;;56.28;40.22;;;18.40;93.40;;;;;;4869513;29;20040;-81
2022/08/17 00:28:08;;;;;;;48.15;37.47;;;18.40;93.70;;;;;;4875400;29;20032;-81
2022/08/17 00:30:34;;;;;;;54.35;39.92;;;18.40;93.70;;;;;;4872265;29;20040;-81
2022/08/17 00:33:06;;;;;;;57.35;40.95;;;18.40;93.70;;;;;;4871877;29;20161;-83
2022/08/17 00:35:33;;;;;;;59.22;41.95;;;18.30;93.50;;;;;;4870579;29;20116;-81
2022/08/17 00:37:58;;;;;;;55.92;40.53;;;18.30;93.60;;;;;;4856951;29;20503;-82
2022/08/17 00:40:24;;;;;;;61.63;44.38;;;18.30;93.40;;;;;;4864729;29;20030;-83
2022/08/17 00:42:49;;;;;;;63.33;42.13;;;18.20;93.40;;;;;;4869496;29;20108;-80
2022/08/17 00:45:16;;;;;;;57.65;43.58;;;18.20;93.40;;;;;;4855319;29;20045;-81
2022/08/17 00:47:42;;;;;;;60.88;43.63;;;18.20;93.40;;;;;;4877223;29;20060;-81
2022/08/17 00:50:14;;;;;;;54.92;43.28;;;18.20;93.50;;;;;;4853420;29;20037;-81
2022/08/17 00:52:48;;;;;;;64.07;44.45;;;18.10;93.60;;;;;;4847797;29;20147;-81
2022/08/17 00:55:14;;;;;;;58.30;42.03;;;18.10;93.60;;;;;;4852040;29;20041;-81
2022/08/17 00:57:43;;;;;;;61.38;44.42;;;18.10;93.60;;;;;;4854123;29;20086;-81
2022/08/17 01:00:32;;;;;;;61.05;43.90;;;18.10;93.60;;;;;;4841596;29;20026;-80
2022/08/17 01:03:08;;;;;;;65.22;46.90;;;18.10;93.70;;;;;;4870415;29;20045;-82
2022/08/17 01:05:37;;;;;;;66.40;46.97;;;18.10;94.30;;;;;;4841311;29;20033;-81
2022/08/17 01:08:07;;;;;;;78.30;49.58;;;18.10;94.60;;;;;;4854651;29;20026;-82
2022/08/17 01:10:38;;;;;;;69.65;48.83;;;18.20;94.90;;;;;;4849666;29;20034;-81
2022/08/17 01:13:04;;;;;;;;;;;18.10;95.00;;;;;;4854129;29;20084;-83
2022/08/17 01:15:33;;;;;;;64.97;45.88;;;18.10;95.10;;;;;;4857577;29;20006;-81
2022/08/17 01:17:59;;;;;;;70.68;47.67;;;18.10;95.10;;;;;;4843085;29;20030;-82
2022/08/17 01:20:25;;;;;;;69.78;48.60;;;18.00;95.10;;;;;;4841019;29;20105;-82
2022/08/17 01:22:51;;;;;;;68.60;49.38;;;18.00;94.90;;;;;;4869549;29;20033;-82
2022/08/17 01:25:19;;;;;;;68.22;48.67;;;18.00;95.00;;;;;;4857680;29;20355;-82
2022/08/17 01:27:45;;;;;;;76.80;52.53;;;18.00;95.00;;;;;;4843573;29;20037;-81
2022/08/17 01:30:12;;;;;;;73.40;49.95;;;18.00;95.20;;;;;;4853037;29;20030;-80
2022/08/17 01:32:38;;;;;;;68.50;48.20;;;18.00;95.20;;;;;;4872929;29;20029;-81
2022/08/17 01:35:06;;;;;;;69.63;49.20;;;17.90;95.00;;;;;;4856856;29;20026;-81
2022/08/17 01:37:41;;;;;;;72.43;47.78;;;18.00;95.00;;;;;;4853527;29;20170;-81
2022/08/17 01:40:24;;;;;;;67.25;46.67;;;17.90;95.10;;;;;;4847955;29;20462;-81
2022/08/17 01:42:58;;;;;;;60.10;43.75;;;17.90;95.00;;;;;;4841764;29;20033;-81
2022/08/17 01:45:30;;;;;;;58.17;44.05;;;17.80;94.70;;;;;;4847493;29;20033;-83
2022/08/17 01:47:56;;;;;;;60.67;43.42;;;17.80;94.70;;;;;;4859532;29;20397;-81
2022/08/17 01:50:28;;;;;;;59.55;42.38;;;17.70;94.70;;;;;;4857302;29;20120;-81
2022/08/17 01:53:00;;;;;;;63.08;45.53;;;17.70;94.70;;;;;;4842073;29;20047;-81
2022/08/17 01:55:32;;;;;;;62.05;44.30;;;17.70;94.90;;;;;;4867233;29;20059;-80
2022/08/17 01:57:58;;;;;;;68.90;46.78;;;17.70;95.00;;;;;;4858882;29;20029;-83
2022/08/17 02:00:25;;;;;;;63.33;44.28;;;17.70;95.30;;;;;;4871106;29;20108;-82
2022/08/17 02:02:50;;;;;;;66.20;44.90;;;17.70;95.30;;;;;;4855765;29;20058;-81
2022/08/17 02:05:17;;;;;;;65.15;45.92;;;17.70;95.40;;;;;;4870332;29;20029;-80
2022/08/17 02:07:42;;;;;;;65.95;44.67;;;17.70;95.50;;;;;;4879200;29;20146;-81
2022/08/17 02:10:08;;;;;;;63.90;44.65;;;17.70;95.30;;;;;;4849177;29;20041;-83
2022/08/17 02:12:36;;;;;;;54.88;41.38;;;17.70;95.40;;;;;;4867261;29;20033;-81
2022/08/17 02:15:04;;;;;;;53.35;39.88;;;17.60;95.20;;;;;;4842859;29;20044;-82
2022/08/17 02:17:29;;;;;;;46.58;36.47;;;17.60;94.90;;;;;;4861048;29;20037;-81
2022/08/17 02:19:55;;;;;;;48.78;38.08;;;17.60;94.70;;;;;;4861200;29;20040;-80
2022/08/17 02:22:21;;;;;;;44.47;35.28;;;17.60;94.70;;;;;;4846883;29;20040;-81
2022/08/17 02:24:47;;;;;;;39.80;33.15;;;17.60;94.60;;;;;;4843151;29;20348;-80
2022/08/17 02:27:12;;;;;;;41.20;33.40;;;17.60;94.60;;;;;;4861743;29;20034;-81
2022/08/17 02:29:38;;;;;;;39.80;31.88;;;17.60;94.70;;;;;;4886360;29;20025;-81
2022/08/17 02:32:04;;;;;;;39.80;30.88;;;17.50;94.70;;;;;;4850846;29;20033;-82
2022/08/17 02:34:31;;;;;;;41.58;32.00;;;17.50;94.70;;;;;;4878127;29;20119;-81
2022/08/17 02:36:56;;;;;;;40.70;30.27;;;17.50;94.70;;;;;;4862300;29;20548;-81
2022/08/17 02:39:22;;;;;;;34.15;29.13;;;17.50;94.60;;;;;;4875717;29;20064;-81
2022/08/17 02:41:47;;;;;;;32.10;26.33;;;17.50;94.60;;;;;;4851876;29;20037;-80
2022/08/17 02:44:13;;;;;;;38.10;27.38;;;17.50;94.40;;;;;;4887709;29;20041;-81
2022/08/17 02:46:38;;;;;;;36.40;28.38;;;17.50;94.50;;;;;;4876824;29;20060;-82
2022/08/17 02:49:04;;;;;;;33.80;27.23;;;17.40;94.70;;;;;;4853144;29;20033;-81
2022/08/17 02:51:30;;;;;;;35.17;26.25;;;17.40;94.50;;;;;;4851904;29;20057;-81
2022/08/17 02:53:56;;;;;;;39.92;28.02;;;17.30;94.50;;;;;;4859055;29;20045;-82
2022/08/17 02:56:21;;;;;;;32.00;27.80;;;17.40;94.50;;;;;;4861479;29;20371;-81
2022/08/17 02:58:47;;;;;;;36.55;27.98;;;17.30;94.60;;;;;;4873964;29;20036;-81
2022/08/17 03:01:12;;;;;;;33.15;27.65;;;17.30;94.80;;;;;;4845304;29;20450;-81
2022/08/17 03:03:38;;;;;;;34.05;28.45;;;17.30;94.80;;;;;;4872672;29;20132;-81
2022/08/17 03:06:06;;;;;;;37.33;27.33;;;17.30;94.80;;;;;;4872398;29;20039;-81
2022/08/17 03:08:32;;;;;;;33.83;28.58;;;17.30;94.90;;;;;;4866786;29;20081;-81
2022/08/17 03:10:57;;;;;;;35.70;28.23;;;17.20;94.90;;;;;;4887553;29;20450;-81
2022/08/17 03:13:23;;;;;;;38.03;29.58;;;17.20;94.90;;;;;;4877319;29;20068;-81
2022/08/17 03:15:49;;;;;;;36.65;29.30;;;17.10;94.70;;;;;;4860900;29;20068;-81
2022/08/17 03:18:18;;;;;;;38.47;30.92;;;17.10;94.60;;;;;;4857717;29;20033;-81
2022/08/17 03:20:44;;;;;;;37.58;30.85;;;17.10;94.70;;;;;;4843614;29;20030;-83
2022/08/17 03:23:10;;;;;;;41.50;33.17;;;17.00;94.60;;;;;;4874691;29;20025;-81
2022/08/17 03:25:40;;;;;;;38.53;31.50;;;17.00;94.70;;;;;;4836982;29;20033;-81
2022/08/17 03:28:06;;;;;;;43.80;34.15;;;17.00;94.70;;;;;;4860151;29;20397;-82
2022/08/17 03:30:32;;;;;;;40.67;32.40;;;17.00;94.90;;;;;;4854408;29;20033;-81
2022/08/17 03:33:00;;;;;;;37.08;30.05;;;17.00;94.80;;;;;;4868180;29;20069;-82
2022/08/17 03:35:29;;;;;;;39.88;31.58;;;17.00;94.70;;;;;;4842924;29;20021;-80
2022/08/17 03:37:55;;;;;;;41.33;32.17;;;17.00;94.70;;;;;;4858478;29;20025;-81
2022/08/17 03:40:21;;;;;;;39.03;30.25;;;17.00;94.80;;;;;;4851602;29;20032;-82
2022/08/17 03:42:47;;;;;;;34.03;28.92;;;17.00;94.80;;;;;;4849777;29;20477;-80
2022/08/17 03:56:40;;;;;;;34.83;28.75;;;17.00;94.80;;;;;;4852499;29;20583;-82
2022/08/17 03:58:59;;;;;;;34.13;27.85;;;16.90;94.90;;;;;;4880991;29;20024;-82
2022/08/17 04:01:26;;;;;;;38.08;29.55;;;16.90;95.00;;;;;;4868810;29;20029;-81
2022/08/17 04:03:51;;;;;;;37.83;28.52;;;16.80;94.70;;;;;;4861125;29;20032;-81
2022/08/17 04:06:17;;;;;;;37.75;30.15;;;16.80;94.70;;;;;;4856724;29;20030;-81
2022/08/17 04:08:43;;;;;;;34.50;29.10;;;16.80;94.70;;;;;;4868548;29;20485;-83
2022/08/17 04:11:08;;;;;;;35.75;29.73;;;16.80;94.70;;;;;;4874554;29;20033;-82
2022/08/17 04:13:34;;;;;;;34.17;28.90;;;16.80;94.60;;;;;;4872361;29;20069;-81
2022/08/17 04:15:59;;;;;;;38.90;30.90;;;16.80;94.60;;;;;;4892571;29;20521;-80
2022/08/17 04:18:25;;;;;;;36.60;29.67;;;16.70;94.70;;;;;;4855781;29;20049;-79
2022/08/17 04:20:50;;;;;;;43.67;30.80;;;16.80;94.70;;;;;;4866266;29;20085;-78
2022/08/17 04:23:17;;;;;;;35.20;29.92;;;16.70;94.70;;;;;;4855403;29;20093;-78
2022/08/17 04:25:47;;;;;;;42.10;31.20;;;16.80;94.90;;;;;;4857062;29;20538;-78
2022/08/17 04:28:15;;;;;;;41.13;31.92;;;16.80;94.80;;;;;;4851705;29;20529;-77
2022/08/17 04:30:40;;;;;;;42.60;32.28;;;16.80;94.90;;;;;;4852012;29;20143;-77
2022/08/17 04:33:09;;;;;;;40.60;32.17;;;16.90;95.10;;;;;;4846494;29;20030;-78
2022/08/17 04:35:43;;;;;;;38.33;29.58;;;16.90;95.20;;;;;;4858329;29;20035;-78
2022/08/17 04:38:12;;;;;;;36.53;30.30;;;16.90;95.10;;;;;;4872951;29;20350;-78
2022/08/17 04:43:28;;;;;;;34.25;28.35;;;17.00;94.80;;;;;;4868695;29;20081;-78
2022/08/17 04:45:55;;;;;;;;;;;16.90;94.80;;;;;;4853368;29;20040;-78
2022/08/17 04:48:22;;;;;;;32.38;26.05;;;17.00;94.60;;;;;;4861164;29;19912;-79
2022/08/17 04:50:49;;;;;;;34.75;27.90;;;17.00;94.60;;;;;;4858129;29;20033;-78
2022/08/17 04:53:15;;;;;;;33.95;26.33;;;17.10;94.70;;;;;;4878554;29;20418;-78
2022/08/17 04:55:41;;;;;;;36.97;29.20;;;17.10;94.60;;;;;;4855715;29;20048;-78
2022/08/17 04:58:08;;;;;;;35.33;27.25;;;17.20;94.70;;;;;;4879236;29;20033;-79
2022/08/17 05:00:35;;;;;;;34.78;28.27;;;17.20;94.60;;;;;;4835418;29;20068;-78
2022/08/17 05:03:00;;;;;;;35.50;28.42;;;17.30;94.80;;;;;;4865809;29;20093;-78
2022/08/17 05:05:28;;;;;;;30.02;25.85;;;17.40;94.80;;;;;;4872236;29;20434;-78
2022/08/17 05:07:56;;;;;;;30.75;27.30;;;17.40;94.80;;;;;;4848504;29;20033;-78
2022/08/17 05:10:23;;;;;;;33.15;29.10;;;17.50;94.80;;;;;;4871014;29;20108;-80
2022/08/17 05:13:05;;;;;;;32.83;27.25;;;17.50;94.90;;;;;;4877897;29;20053;-77
2022/08/17 05:15:32;;;;;;;38.38;28.52;;;17.60;94.90;;;;;;4865025;29;20104;-78
2022/08/17 05:17:58;;;;;;;40.78;29.42;;;17.60;94.90;;;;;;4861390;29;20048;-80
2022/08/17 05:20:24;;;;;;;33.13;27.50;;;17.70;94.80;;;;;;4876679;29;20029;-78
2022/08/17 05:22:59;;;;;;;36.50;28.77;;;17.80;94.70;;;;;;4871513;29;20026;-78
2022/08/17 05:25:30;;;;;;;33.13;26.60;;;17.90;94.70;;;;;;4857480;29;20112;-79
2022/08/17 05:27:56;;;;;;;36.13;27.10;;;17.90;94.60;;;;;;4869169;29;20055;-79
2022/08/17 05:30:23;;;;;;;33.10;28.02;;;18.00;94.50;;;;;;4847401;29;20030;-79
2022/08/17 05:32:58;;;;;;;32.60;25.75;;;18.00;94.30;;;;;;4871824;29;20442;-79
2022/08/17 05:35:27;;;;;;;33.97;26.27;;;18.10;94.10;;;;;;4856525;29;20033;-80
2022/08/17 05:37:53;;;;;;;33.00;25.88;;;18.20;94.10;;;;;;4867517;29;20081;-78
2022/08/17 05:40:20;;;;;;;32.38;25.95;;;18.30;94.00;;;;;;4865761;29;20109;-80
2022/08/17 05:42:47;;;;;;;30.73;25.08;;;18.50;93.70;;;;;;4856475;29;20025;-78
2022/08/17 05:45:14;;;;;;;30.02;23.33;;;18.50;93.40;;;;;;4851994;29;20029;-78
2022/08/17 05:47:41;;;;;;;29.70;23.83;;;18.80;93.00;;;;;;4866432;29;20386;-79
2022/08/17 05:50:08;;;;;;;27.75;21.73;;;18.90;92.80;;;;;;4866763;29;20052;-78
2022/08/17 05:53:11;;;;;;;26.52;20.75;;;19.00;92.70;;;;;;4866142;29;20128;-78
2022/08/17 05:55:54;;;;;;;27.00;21.02;;;19.10;92.60;;;;;;4869880;29;20155;-78
2022/08/17 05:58:45;;;;;;;25.15;20.50;;;19.30;92.30;;;;;;4866569;29;20115;-81
2022/08/17 06:01:42;;;;;;;20.95;18.33;;;19.40;92.00;;;;;;4850765;29;20041;-78
2022/08/17 06:04:25;;;;;;;22.25;17.38;;;19.60;91.90;;;;;;4844701;29;20039;-78
2022/08/17 06:07:05;;;;;;;20.58;17.17;;;19.70;91.60;;;;;;4876373;29;20029;-78
2022/08/17 06:10:00;;;;;;;18.52;16.15;;;19.90;91.10;;;;;;4869766;29;20029;-78
2022/08/17 06:12:56;;;;;;;19.90;15.38;;;20.00;90.60;;;;;;4854087;29;20041;-78
2022/08/17 06:15:41;;;;;;;17.45;14.82;;;20.30;89.70;;;;;;4856711;29;20041;-79
2022/08/17 06:18:09;;;;;;;17.38;14.35;;;20.50;89.50;;;;;;4872951;29;20115;-81
2022/08/17 06:20:46;;;;;;;22.20;14.68;;;20.70;88.60;;;;;;4868917;29;20040;-78
2022/08/17 06:23:18;;;;;;;16.92;15.13;;;20.80;88.20;;;;;;4873779;29;20068;-79
2022/08/17 06:25:49;;;;;;;17.40;12.93;;;21.00;87.90;;;;;;4878259;29;20029;-79
2022/08/17 06:28:26;;;;;;;15.07;12.93;;;21.00;88.20;;;;;;4860809;29;20040;-79
2022/08/17 06:30:59;;;;;;;17.27;13.18;;;21.10;88.00;;;;;;4875022;29;20399;-80
2022/08/17 06:33:30;;;;;;;19.25;12.90;;;21.20;87.70;;;;;;4860694;29;20036;-78
2022/08/17 06:36:21;;;;;;;14.80;12.48;;;21.30;86.90;;;;;;4869734;29;20474;-78
2022/08/17 06:39:25;;;;;;;15.02;11.68;;;21.50;86.40;;;;;;4875764;29;20112;-79
2022/08/17 06:42:39;;;;;;;14.45;11.00;;;21.60;85.70;;;;;;4874295;29;20040;-78
2022/08/17 06:45:21;;;;;;;13.82;9.93;;;21.90;83.80;;;;;;4865581;29;20104;-79
2022/08/17 06:48:05;;;;;;;11.02;9.15;;;22.00;83.30;;;;;;4856514;29;20112;-78
2022/08/17 06:50:38;;;;;;;11.85;8.57;;;22.30;83.50;;;;;;4863544;29;20061;-78
2022/08/17 06:53:16;;;;;;;10.40;8.43;;;22.50;82.60;;;;;;4848356;29;20462;-81
2022/08/17 06:56:09;;;;;;;9.38;7.63;;;22.60;81.30;;;;;;4853222;29;20041;-79
2022/08/17 06:58:37;;;;;;;11.48;7.75;;;22.70;82.50;;;;;;4853799;29;20040;-78
2022/08/17 07:01:27;;;;;;;10.45;8.30;;;22.80;81.50;;;;;;4867349;29;20033;-81
2022/08/17 07:03:53;;;;;;;9.43;7.55;;;23.00;80.20;;;;;;4873474;29;20131;-79
2022/08/17 07:06:23;;;;;;;9.45;7.68;;;23.20;78.50;;;;;;4857359;29;20057;-79
2022/08/17 07:08:56;;;;;;;9.70;7.43;;;23.30;79.70;;;;;;4871348;29;20037;-79
2022/08/17 07:11:53;;;;;;;10.48;7.95;;;23.50;78.50;;;;;;4869771;29;20139;-79
2022/08/17 07:14:57;;;;;;;8.45;7.05;;;23.70;78.40;;;;;;4843276;29;20125;-79
2022/08/17 07:17:25;;;;;;;8.73;6.78;;;23.80;77.00;;;;;;4867013;29;20034;-79
2022/08/17 07:19:55;;;;;;;8.52;6.63;;;24.00;76.80;;;;;;4869334;29;20029;-79
2022/08/17 07:22:53;;;;;;;10.82;7.00;;;24.00;76.60;;;;;;4853762;29;20048;-78
2022/08/17 07:25:20;;;;;;;9.43;6.63;;;24.20;77.00;;;;;;4855041;29;20197;-82
2022/08/17 07:27:59;;;;;;;8.13;6.47;;;24.20;76.50;;;;;;4850691;29;20037;-79
2022/08/17 07:30:47;;;;;;;12.13;6.55;;;24.30;76.70;;;;;;4867715;29;20219;-80
2022/08/17 07:33:23;;;;;;;8.93;5.97;;;24.40;76.00;;;;;;4848603;29;20136;-79
2022/08/17 07:35:49;;;;;;;8.90;6.28;;;24.50;75.60;;;;;;4864060;29;20119;-79
2022/08/17 07:38:16;;;;;;;6.97;5.65;;;24.60;74.90;;;;;;4854924;29;20053;-79
2022/08/17 07:40:47;;;;;;;11.73;6.72;;;24.80;73.70;;;;;;4851371;29;20080;-79
2022/08/17 07:43:24;;;;;;;7.75;5.47;;;24.80;71.30;;;;;;4868372;29;20116;-79
2022/08/17 07:48:53;;;;;;;7.55;5.57;;;25.10;70.70;;;;;;4873346;29;20190;-79
2022/08/17 07:51:35;;;;;;;9.13;5.93;;;25.30;70.70;;;;;;4875767;29;20104;-80
2022/08/17 07:54:21;;;;;;;10.18;5.03;;;25.40;71.30;;;;;;4869920;29;20045;-79
2022/08/17 07:56:59;;;;;;;8.43;5.63;;;25.60;69.20;;;;;;4870414;29;20021;-81
2022/08/17 07:59:30;;;;;;;9.88;5.28;;;25.70;71.40;;;;;;4863763;29;20117;-80
2022/08/17 08:01:56;;;;;;;6.95;5.35;;;25.80;71.00;;;;;;4884050;29;20095;-80
2022/08/17 08:04:41;;;;;;;7.18;5.13;;;25.80;67.20;;;;;;4848781;29;20124;-79
2022/08/17 08:07:24;;;;;;;8.90;4.93;;;26.00;68.30;;;;;;4862768;29;20029;-80
2022/08/17 08:10:09;;;;;;;6.72;4.95;;;26.00;67.30;;;;;;4860411;29;20051;-79
2022/08/17 08:12:38;;;;;;;7.25;5.30;;;26.30;68.70;;;;;;4863850;29;20033;-81
2022/08/17 08:15:18;;;;;;;5.50;4.75;;;26.40;66.20;;;;;;4867741;29;20037;-80
2022/08/17 08:17:54;;;;;;;5.97;4.78;;;26.50;67.60;;;;;;4869846;29;20120;-80
2022/08/17 08:20:30;;;;;;;6.75;4.63;;;26.60;67.50;;;;;;4874425;29;20123;-80
2022/08/17 08:23:10;;;;;;;6.93;4.60;;;26.70;67.20;;;;;;4859378;29;20439;-80
2022/08/17 08:26:10;;;;;;;5.80;4.38;;;26.90;62.90;;;;;;4851324;29;20033;-80
2022/08/17 08:29:00;;;;;;;7.57;4.67;;;27.00;65.20;;;;;;4850810;29;20351;-82
2022/08/17 08:31:45;;;;;;;10.67;4.47;;;27.30;62.60;;;;;;4852385;29;20471;-83
2022/08/17 08:34:22;;;;;;;6.53;4.63;;;27.40;61.30;;;;;;4848830;29;20037;-83
2022/08/17 08:37:23;;;;;;;8.23;4.32;;;27.70;60.10;;;;;;4866826;29;20021;-83
2022/08/17 08:40:22;;;;;;;5.40;4.10;;;27.60;57.00;;;;;;4820948;29;20049;-83
2022/08/17 08:43:22;;;;;;;8.90;4.47;;;27.70;56.10;;;;;;4866552;29;20041;-83
2022/08/17 08:46:10;;;;;;;7.38;4.05;;;27.70;55.60;;;;;;4850012;29;20029;-83
2022/08/17 08:49:02;;;;;;;5.57;4.28;;;27.90;59.30;;;;;;4861420;29;20025;-83
2022/08/17 08:51:56;;;;;;;7.63;4.18;;;28.00;57.90;;;;;;4842734;29;20042;-83
2022/08/17 08:54:58;;;;;;;5.65;4.28;;;28.30;57.60;;;;;;4863791;29;20056;-83
2022/08/17 08:57:36;;;;;;;8.32;3.90;;;28.50;54.90;;;;;;4850139;29;20045;-84
2022/08/17 09:00:23;;;;;;;7.03;4.40;;;28.60;57.80;;;;;;4874917;29;20569;-83
2022/08/17 09:03:34;;;;;;;6.75;4.43;;;28.40;54.90;;;;;;4857625;29;20446;-83
2022/08/17 09:06:18;;;;;;;;;;;28.70;54.30;;;;;;4823596;29;20049;-83
2022/08/17 09:09:18;;;;;;;7.00;4.55;;;28.80;53.20;;;;;;4871302;29;20799;-84
2022/08/17 09:12:00;;;;;;;6.45;4.22;;;28.60;55.50;;;;;;4876787;29;20056;-84
2022/08/17 09:14:36;;;;;;;6.78;4.68;;;28.70;54.00;;;;;;4871720;29;20063;-83
2022/08/17 09:17:18;;;;;;;6.13;4.07;;;28.90;56.80;;;;;;4852196;29;20038;-83
2022/08/17 09:20:02;;;;;;;6.65;4.50;;;28.80;54.90;;;;;;4879665;29;20025;-83
2022/08/17 09:22:43;;;;;;;6.10;4.13;;;28.90;56.50;;;;;;4860999;29;20485;-82
2022/08/17 09:25:14;;;;;;;6.80;4.30;;;28.90;55.50;;;;;;4856264;29;20047;-83
2022/08/17 09:28:02;;;;;;;5.13;4.07;;;29.00;55.80;;;;;;4853307;29;20068;-83
2022/08/17 09:30:42;;;;;;;8.68;4.30;;;29.20;56.30;;;;;;4879522;29;20041;-82
2022/08/17 09:33:11;;;;;;;6.38;4.18;;;29.30;52.80;;;;;;4876356;29;20068;-83
2022/08/17 09:35:51;;;;;;;6.03;4.38;;;29.30;54.40;;;;;;4881182;29;20033;-83
2022/08/17 09:38:39;;;;;;;7.85;4.57;;;29.50;54.50;;;;;;4875012;29;20029;-83
2022/08/17 09:41:07;;;;;;;6.00;4.40;;;29.60;53.90;;;;;;4877079;29;20044;-83
2022/08/17 09:43:52;;;;;;;6.32;4.50;;;29.70;53.70;;;;;;4873733;29;20077;-82
2022/08/17 09:46:20;;;;;;;8.50;3.90;;;29.80;51.50;;;;;;4862240;29;20036;-82
2022/08/17 09:48:56;;;;;;;5.45;4.13;;;29.90;52.30;;;;;;4858281;29;20133;-84
2022/08/17 09:51:33;;;;;;;6.50;3.72;;;29.70;50.70;;;;;;4854655;29;20084;-84
2022/08/17 09:53:59;;;;;;;6.28;4.38;;;29.70;51.40;;;;;;4852738;29;20166;-84
2022/08/17 09:56:51;;;;;;;6.15;4.20;;;29.70;51.60;;;;;;4860626;29;20040;-84
2022/08/17 09:59:26;;;;;;;7.10;4.07;;;29.70;53.50;;;;;;4863675;29;20097;-84
2022/08/17 10:02:15;;;;;;;7.10;4.53;;;29.60;53.30;;;;;;4853295;29;20144;-87
2022/08/17 10:05:02;;;;;;;6.20;3.90;;;29.70;52.50;;;;;;4858499;29;20028;-84
2022/08/17 10:07:54;;;;;;;8.77;4.43;;;30.10;53.00;;;;;;4874196;29;20834;-84
2022/08/17 10:10:28;;;;;;;6.97;4.00;;;30.40;49.40;;;;;;4865243;29;20763;-84
2022/08/17 10:13:16;;;;;;;6.35;3.95;;;30.50;51.10;;;;;;4858480;29;20033;-82
2022/08/17 10:16:19;;;;;;;5.05;3.67;;;30.40;52.70;;;;;;4872213;29;20478;-83
2022/08/17 10:19:21;;;;;;;6.45;3.20;;;30.00;49.30;;;;;;4875714;29;20025;-83
2022/08/17 10:27:51;;;;;;;6.57;3.30;;;30.70;48.00;;;;;;4876180;29;20096;-83
2022/08/17 10:30:24;;;;;;;6.57;3.30;;;30.90;49.10;;;;;;4878976;29;20172;-84
2022/08/17 10:32:59;;;;;;;5.63;3.70;;;30.80;48.50;;;;;;4877268;29;20056;-83
2022/08/17 10:35:29;;;;;;;7.40;3.75;;;30.90;46.20;;;;;;4859915;29;20430;-83
2022/08/17 10:38:37;;;;;;;7.35;3.72;;;30.90;46.70;;;;;;4879996;29;20967;-83
2022/08/17 10:41:22;;;;;;;4.50;3.30;;;31.10;47.60;;;;;;4831620;29;20037;-83
2022/08/17 10:44:17;;;;;;;5.60;3.60;;;31.10;48.80;;;;;;4873868;29;20121;-84
2022/08/17 10:47:00;;;;;;;5.55;3.97;;;30.70;46.80;;;;;;4867627;29;20029;-84
2022/08/17 10:49:34;;;;;;;7.28;3.70;;;30.40;47.70;;;;;;4858643;29;20040;-83
2022/08/17 10:52:25;;;;;;;4.63;3.40;;;30.60;46.80;;;;;;4861026;29;20504;-83
2022/08/17 10:54:50;;;;;;;4.88;3.88;;;30.80;48.60;;;;;;4848128;29;20162;-84
2022/08/17 10:57:38;;;;;;;6.18;3.75;;;30.50;45.70;;;;;;4867664;29;20096;-84
2022/08/17 11:00:17;;;;;;;4.93;3.45;;;30.40;48.30;;;;;;4866452;29;20025;-83
2022/08/17 11:02:48;;;;;;;6.00;3.78;;;30.50;48.60;;;;;;4864395;29;20029;-83
2022/08/17 11:05:49;;;;;;;5.32;3.78;;;30.50;47.60;;;;;;4862333;29;20036;-83
2022/08/17 11:08:37;;;;;;;5.30;3.55;;;30.60;46.60;;;;;;4880989;29;20370;-84
2022/08/17 11:11:46;;;;;;;5.90;3.90;;;30.50;48.70;;;;;;4870007;29;20044;-83
2022/08/17 11:14:26;;;;;;;6.22;3.78;;;30.30;49.50;;;;;;4835533;29;20056;-84
2022/08/17 11:17:06;;;;;;;5.57;3.88;;;30.60;46.90;;;;;;4880626;29;20041;-84
2022/08/17 11:19:42;;;;;;;5.15;3.45;;;30.60;48.40;;;;;;4867334;29;20037;-83
2022/08/17 11:22:54;;;;;;;5.75;3.60;;;30.50;47.30;;;;;;4878579;29;20112;-83
2022/08/17 11:25:30;;;;;;;7.63;3.95;;;30.40;49.40;;;;;;4836976;29;20051;-83
2022/08/17 11:28:06;;;;;;;7.20;3.50;;;30.50;48.00;;;;;;4885081;29;20060;-84
2022/08/17 11:30:52;;;;;;;6.90;4.20;;;30.40;47.60;;;;;;4866923;29;20044;-83
2022/08/17 11:33:32;;;;;;;8.20;3.60;;;30.50;49.10;;;;;;4880938;29;20037;-83
2022/08/17 11:36:45;;;;;;;9.32;3.63;;;30.50;47.70;;;;;;4866107;29;20029;-83
2022/08/17 11:39:49;;;;;;;6.95;3.60;;;30.70;49.10;;;;;;4852209;29;20049;-83
2022/08/17 11:42:36;;;;;;;5.95;3.72;;;30.40;47.20;;;;;;4842107;29;20032;-84
2022/08/17 11:45:20;;;;;;;4.95;3.67;;;30.50;47.90;;;;;;4865018;29;20037;-84
2022/08/17 11:53:52;;;;;;;5.97;3.60;;;31.10;47.30;;;;;;4876022;29;20197;-84
2022/08/17 11:56:47;;;;;;;5.32;4.00;;;31.00;48.50;;;;;;4875248;29;20119;-84
2022/08/17 11:59:44;;;;;;;6.75;3.67;;;31.00;48.20;;;;;;4858789;29;20080;-84
2022/08/17 12:02:31;;;;;;;6.30;4.40;;;30.90;48.50;;;;;;4880291;29;20040;-84
2022/08/17 12:05:24;;;;;;;5.72;3.70;;;30.50;50.40;;;;;;4881376;29;20032;-83
2022/08/17 12:08:09;;;;;;;5.45;4.03;;;30.60;50.80;;;;;;4873636;29;20089;-83
2022/08/17 12:10:54;;;;;;;6.90;4.00;;;30.40;49.90;;;;;;4863738;29;20037;-83
2022/08/17 12:13:22;;;;;;;6.97;3.50;;;30.20;49.30;;;;;;4868794;29;20459;-83
2022/08/17 12:15:50;;;;;;;6.18;3.72;;;30.30;49.50;;;;;;4860849;29;20033;-83
2022/08/17 12:18:34;;;;;;;6.60;3.88;;;30.20;49.00;;;;;;4863086;29;20372;-84
2022/08/17 12:21:18;;;;;;;6.28;3.72;;;30.20;50.50;;;;;;4870915;29;20040;-83
2022/08/17 12:24:05;;;;;;;7.35;3.95;;;30.10;49.90;;;;;;4862017;29;20031;-84
2022/08/17 12:26:34;;;;;;;5.07;3.85;;;30.10;50.30;;;;;;4875641;29;20279;-83
2022/08/17 12:29:13;;;;;;;7.07;4.22;;;29.90;49.40;;;;;;4860532;29;20037;-83
2022/08/17 12:31:46;;;;;;;7.53;3.88;;;29.90;51.20;;;;;;4854099;29;20049;-83
2022/08/17 12:34:39;;;;;;;5.95;3.63;;;29.80;50.90;;;;;;4865328;29;20064;-83
2022/08/17 12:37:13;;;;;;;5.47;3.60;;;29.80;51.40;;;;;;4853182;29;20059;-83
2022/08/17 12:39:59;;;;;;;7.32;4.10;;;29.90;51.20;;;;;;4847178;29;20490;-83
2022/08/17 12:42:33;;;;;;;6.63;4.00;;;29.80;51.90;;;;;;4855898;29;20049;-83
2022/08/17 12:44:59;;;;;;;6.40;4.13;;;29.80;52.00;;;;;;4876873;29;20025;-82
2022/08/17 12:47:28;;;;;;;6.65;3.88;;;29.60;51.30;;;;;;4868950;29;20048;-82
2022/08/17 12:50:06;;;;;;;4.43;3.72;;;29.60;52.50;;;;;;4849137;29;20036;-82
2022/08/17 12:52:38;;;;;;;7.75;4.03;;;29.50;51.40;;;;;;4878533;29;20029;-82
2022/08/17 12:55:19;;;;;;;6.30;3.97;;;29.50;52.30;;;;;;4846917;29;20048;-82
2022/08/17 12:57:48;;;;;;;8.73;4.35;;;29.50;54.30;;;;;;4858629;29;20032;-82
2022/08/17 13:00:19;;;;;;;6.63;3.70;;;29.30;51.80;;;;;;4852936;29;20030;-82
2022/08/17 13:02:51;;;;;;;5.28;3.95;;;29.40;53.20;;;;;;4855293;29;20037;-82
2022/08/17 13:05:26;;;;;;;6.07;4.03;;;29.30;51.60;;;;;;4857573;29;20432;-81
2022/08/17 13:07:53;;;;;;;6.45;3.80;;;29.20;52.70;;;;;;4859976;29;20343;-82
2022/08/17 13:10:29;;;;;;;7.85;4.03;;;29.10;53.50;;;;;;4858780;29;20110;-82
2022/08/17 13:12:55;;;;;;;6.15;3.95;;;29.10;51.50;;;;;;4858419;29;20065;-82
2022/08/17 13:15:51;;;;;;;7.85;3.60;;;29.10;52.60;;;;;;4858412;29;20056;-82
2022/08/17 13:18:40;;;;;;;6.32;4.20;;;29.30;53.10;;;;;;4843660;29;20053;-82
2022/08/17 13:21:31;;;;;;;6.65;3.92;;;29.20;52.20;;;;;;4845907;29;20496;-83
2022/08/17 13:24:09;;;;;;;6.97;4.13;;;29.30;52.50;;;;;;4847875;29;20059;-83
2022/08/17 13:26:40;;;;;;;7.40;3.80;;;29.20;51.80;;;;;;4848479;29;20100;-82
2022/08/17 13:29:15;;;;;;;;;;;29.10;52.30;;;;;;4850318;29;20105;-85
2022/08/17 13:31:42;;;;;;;7.63;4.07;;;29.20;52.40;;;;;;4845834;29;19989;-83
2022/08/17 13:34:23;;;;;;;5.15;3.90;;;29.20;51.60;;;;;;4849396;29;20034;-84
2022/08/17 13:36:50;;;;;;;5.53;3.92;;;29.10;52.00;;;;;;4858197;29;20080;-82
2022/08/17 13:39:24;;;;;;;5.45;3.40;;;29.10;51.80;;;;;;5060661;28;20914;-72
2022/08/17 13:41:54;;;;;;;7.53;3.40;;;28.90;51.90;;;;;;5067715;28;20063;-72
2022/08/17 13:44:33;;;;;;;8.38;3.15;;;28.90;53.10;;;;;;5068217;28;20017;-72
2022/08/17 13:47:00;;;;;;;6.43;3.67;;;29.10;51.80;;;;;;5066908;28;20371;-73
2022/08/17 13:49:28;;;;;;;8.13;3.78;;;29.30;53.00;;;;;;5069297;28;20024;-72